New Orleans, LA (70139)

2:03 PM CDT on August 29, 2014 (GMT -0500)
Mid City Station | Change Station
CLOSE
Current Station
Personal Weather Station
Location: New Orleans, LA
Elevation: 25 ft
Nearby Weather Stations

Elev 25 ft 29.98 °N, 90.08 °W | Updated 11 seconds ago

Rain
Rain
80.0 °F
Feels Like 85 °F
N
0.0
Wind Variable Wind from West
Gusts 0.0 mph

Today
High -- | Low -- °F
--% Chance of Precip.
Yesterday
High -- | Low -- °F
Precip. -- in
6:35 AM 7:26 PM
Waxing Crescent, 16% visible
Pressure 29.96 in
Visibility 10.0 miles
Clouds Mostly Cloudy 2700 ft
Mostly Cloudy 3900 ft
Overcast 6500 ft
Heat Index 85 °F
Dew Point 76 °F
Humidity 87%
Rainfall 0.02 in
Snow Depth Not available.
UV 4 out of 12
Pollen 6.20 out of 12
Ozone Good
PM2.5 Good
Flu Activity Not available.
METAR KNEW 291853Z 19007KT 10SM BKN027 BKN039 OVC065 25/24 A2997 RMK AO2 RAB18E37 SLP143 P0005 T02500239

More Conditions Fewer Conditions

Pressure 29.96 in
Visibility 10.0 miles
Clouds Mostly Cloudy 2700 ft
Mostly Cloudy 3900 ft
Overcast 6500 ft
Heat Index 85 °F
Dew Point 76 °F
Humidity 87%
Rainfall 0.02 in
Snow Depth Not available.
UV 4 out of 12
Pollen 6.20 out of 12
Ozone Good
PM2.5 Good
Flu Activity Not available.
METAR KNEW 291853Z 19007KT 10SM BKN027 BKN039 OVC065 25/24 A2997 RMK AO2 RAB18E37 SLP143 P0005 T02500239

More Conditions Fewer Conditions

10-Day Weather Forecast

Almanac

Astronomy

Aug. 29, 2014 Rise Set
Actual Time 6:35 AM CDT 7:26 PM CDT
Civil Twilight 6:11 AM CDT 7:50 PM CDT
Nautical Twilight 5:42 AM CDT 8:19 PM CDT
Astronomical Twilight 5:12 AM CDT 8:48 PM CDT
Moon 10:05 AM CDT 9:44 PM CDT
Length of Visible Light 13h 39m
Length of Day
12h 50m
Tomorrow will be 1m 43s shorter.
Waxing Crescent, 16% of the Moon is Illuminated
Today
Waxing Crescent
Sep 2
First Quarter
Sep 8
Full
Sep 15
Last Quarter
Sep 24
New

Today's Extremes

State Highs State Lows

Community

WunderPhotos

Upload Photos

1,748,314 photos uploaded!

Nearby

Air Quality

  Air Quality AQ Index Pollutant
Yesterday Good
OZONE
Yesterday Good
PM2.5
Current Good
PM2.5
Current Good
OZONE
Friday Good
OZONE
Friday Good
PM2.5
Saturday Good
OZONE
Saturday Good
PM2.5

Snow Depth

Station Depth Elevation
No new snow has been reported.

Earthquake Activity

City Distance Mag. Time & Date
No recent earthquake activity has been reported nearby.
Minimum magnitude displayed is 2.5.

Coastal Water Temperatures

Place Temperature
New Canal, LA 82.9 °F
Shell Beach, LA 81.0 °F
Bayou Gauche, LA 84.0 °F

Nearby Weather Stations